Tiempo atmosférico en la estación meteorológica de Maspalomas, Las Palmas (25 m.)



Fecha
DESCASC
Temp. máxima en grados centígrados (hora)
DESCASC
Temp. mínima en grados centígrados (hora)
DESCASC
Temp. media en grados centígrados
DESCASC
Racha de viento máxima en m/sg (hora)
DESCASC
Velocidad máxima media en intervalos de 10 minutos(hora)
DESCASC
Precipitaciones diarias en mm
DESCASC
Precipitaciones de 00:00 a 06:00 en mm
DESCASC
Precipitaciones de 06:00 a 12:00 en mm
DESCASC
Precipitaciones de 12:00 a 18:00 en mm
DESCASC
Precipitaciones de 18:00 a 24:00 en mm
DESCASC
24-09-2020 -- (--) -- (--) -- 7.78 (02:20) 5 (02:20) 2.3 1.4 0.9 0 0
23-09-2020 -- (--) -- (--) -- 9.17 (17:40) 5.28 (17:10) 0 0 0 0 0
22-09-2020 -- (--) -- (--) -- 6.11 (21:40) 4.17 (15:30) 0 0 0 0 0
21-09-2020 -- (--) -- (--) -- 8.61 (14:20) 7.22 (14:20) 0 0 0 0 0
20-09-2020 -- (--) -- (--) -- 6.39 (18:30) 3.89 (16:20) 0 0 0 0 0
19-09-2020 -- (--) -- (--) -- 19.72 (13:00) 8.61 (14:00) 0 0 0 0 0
18-09-2020 -- (--) -- (--) -- 7.22 (14:00) 5 (14:00) 0 0 0 0 0
17-09-2020 -- (--) -- (--) -- 6.39 (16:40) 3.89 (16:20) 0 0 0 0 0
16-09-2020 -- (--) -- (--) -- 9.44 (13:10) 4.17 (14:40) 0 0 0 0 0
15-09-2020 -- (--) -- (--) -- 20 (04:10) 10.83 (14:00) 0 0 0 0 0
14-09-2020 -- (--) -- (--) -- 20 (13:50) 10 (13:30) 0 0 0 0 0
13-09-2020 -- (--) -- (--) -- 6.67 (01:40) 5.28 (01:00) 0 0 0 0 0
12-09-2020 -- (--) -- (--) -- 8.06 (13:30) 6.39 (20:50) 0 0 0 0 0
11-09-2020 -- (--) -- (--) -- 9.17 (12:40) 5.56 (14:40) 0 0 0 0 0
10-09-2020 -- (--) -- (--) -- 11.39 (00:10) 6.39 (00:10) 0 0 0 0 0
09-09-2020 -- (--) -- (--) -- 18.89 (13:10) 7.5 (23:59) 0 0 0 0 0
08-09-2020 -- (--) -- (--) -- 9.17 (14:40) 4.17 (16:20) 0 0 0 0 0
07-09-2020 -- (--) -- (--) -- 9.72 (13:40) 7.22 (13:40) 0 0 0 0 0
06-09-2020 -- (--) -- (--) -- 7.78 (13:10) 5.28 (12:40) 0 0 0 0 0
05-09-2020 -- (--) -- (--) -- 10 (15:10) 6.94 (17:00) 0 0 0 0 0
04-09-2020 -- (--) -- (--) -- 20 (12:30) 7.78 (12:20) 0 0 0 0 0
03-09-2020 -- (--) -- (--) -- 20 (10:50) 9.72 (13:50) 0 0 0 0 0
02-09-2020 -- (--) -- (--) -- 5.28 (12:50) 3.89 (12:50) 0 0 0 0 0
01-09-2020 -- (--) -- (--) -- 5 (23:00) 3.61 (18:50) 0 0 0 0 0
31-08-2020 -- (--) -- (--) -- 7.78 (18:10) 6.39 (18:10) 0 0 0 0 0
30-08-2020 -- (--) -- (--) -- 10.56 (17:30) 7.5 (17:30) 0 0 0 0 0
29-08-2020 -- (--) -- (--) -- 9.17 (16:40) 5 (16:30) 0 0 0 0 0
28-08-2020 -- (--) -- (--) -- 7.22 (15:40) 4.44 (15:00) 0 0 0 0 0

Gráficas

Temp. máximas Temp. mínimas Temp. medias Precipitaciones Rachas de viento máximas Velocidades máximas media en intervalos de 10 minutos

Datos horarios

Fecha y hora oficial Temperatura (ºC) Velocidad del viento (km/h) Dirección del viento Racha (km/h) Dirección de racha Precipitación (mm) Presión (hPa) Tendencia (hPa) Humedad (%)
2020-09-26 23:00:00 23.9 0 Calma 8 Noroeste 0 -- -- 82
2020-09-26 22:00:00 24 3 Oeste 12 Oeste 0 -- -- 83
2020-09-26 21:00:00 24.4 6 Sudoeste 11 Oeste 0 -- -- 81
2020-09-26 20:00:00 24.7 7 Oeste 15 Oeste 0 -- -- 79
2020-09-26 19:00:00 26 6 Oeste 14 Sudoeste 0 -- -- 71
2020-09-26 18:00:00 26.9 6 Oeste 20 Oeste 0 -- -- 70
2020-09-26 17:00:00 26.3 13 Oeste 24 Oeste 0 -- -- 73
2020-09-26 16:00:00 26.5 13 Oeste 22 Oeste 0 -- -- 71
2020-09-26 15:00:00 27.2 7 Sur 19 Oeste 0 -- -- 68
2020-09-26 14:00:00 26.9 13 Oeste 21 Oeste 0 -- -- 74
2020-09-26 13:00:00 26.6 10 Oeste 37 Este 0 -- -- 71
2020-09-26 12:00:00 28.1 2 Noroeste 30 Este 0 -- -- 61
2020-09-26 11:00:00 26.9 6 Sudoeste 10 Sudoeste 0 -- -- 65
2020-09-26 10:00:00 25 5 Sur 11 Sudoeste 0 -- -- 78
2020-09-26 09:00:00 24 2 Sudeste 8 Sur 0 -- -- 70
2020-09-26 08:00:00 21.7 3 Norte 5 Norte 0 -- -- 81
2020-09-26 07:00:00 21.4 2 Norte 4 Nordeste 0 -- -- 89
2020-09-26 06:00:00 22.3 0 Calma 8 Sudoeste 0 -- -- 88
2020-09-26 05:00:00 23.4 2 Oeste 9 Sudoeste 0 -- -- 87
2020-09-26 04:00:00 23.5 4 Noroeste 10 Oeste 0 -- -- 81
2020-09-26 03:00:00 24.4 7 Oeste 14 Oeste 0 -- -- 83
2020-09-26 02:00:00 23.7 2 Oeste 15 Oeste 0 -- -- 92
2020-09-26 01:00:00 24.4 6 Oeste 12 Oeste 0 -- -- 89
2020-09-26 00:00:00 24.4 3 Noroeste 7 Noroeste 0 -- -- 85
2020-09-25 23:00:00 24.2 3 Noroeste 7 Oeste 0 -- -- 89
2020-09-25 22:00:00 24 0 Calma 9 Sudoeste 0 -- -- 93
2020-09-25 21:00:00 24.4 6 Sudoeste 14 Sudoeste 0 -- -- 93
2020-09-25 20:00:00 24.8 9 Sudoeste 14 Sudoeste 0 -- -- 90
2020-09-25 19:00:00 25.5 8 Oeste 19 Oeste 0 -- -- 85
2020-09-25 18:00:00 26.1 8 Oeste 27 Oeste 0 -- -- 76
2020-09-25 17:00:00 29.2 7 Sudoeste 33 Este 0 -- -- 47
2020-09-25 16:00:00 31.9 18 Nordeste 36 Este 0 -- -- 38
2020-09-25 15:00:00 32.5 30 Nordeste 72 Nordeste 0 -- -- 33
2020-09-25 14:00:00 31.4 36 Nordeste 72 Nordeste 0 -- -- 36
2020-09-25 13:00:00 30.4 37 Este 71 Nordeste 0 -- -- 38
2020-09-25 12:00:00 30.8 24 Nordeste 41 Nordeste 0 -- -- 34
2020-09-25 11:00:00 28.5 25 Nordeste 36 Nordeste 0 -- -- 40
2020-09-25 10:00:00 26.6 27 Nordeste 39 Nordeste 0 -- -- 47
2020-09-25 09:00:00 22 4 Norte 9 Norte 0 -- -- 85
2020-09-25 08:00:00 23.4 6 Oeste 10 Oeste 0 -- -- 94
2020-09-25 07:00:00 22 3 Oeste 5 Oeste 0 -- -- 89
2020-09-25 06:00:00 22.9 0 Calma 13 Oeste 0 -- -- 91
2020-09-25 05:00:00 21.6 3 Noroeste 6 Noroeste 0 -- -- 94
2020-09-25 04:00:00 22.1 0 Calma 8 Oeste 0 -- -- 94
2020-09-25 03:00:00 22.2 0 Calma 11 Noroeste 0 -- -- 94
2020-09-25 02:00:00 23 0 Calma 11 Sudoeste 0 -- -- 94
2020-09-25 01:00:00 23.2 0 Calma 8 Sur 0 -- -- 93
2020-09-25 00:00:00 23.3 0 Calma 15 Nordeste 0 -- -- 92
2020-09-24 23:00:00 23.5 13 Nordeste 22 Nordeste 0 -- -- 92
2020-09-24 22:00:00 23.4 16 Nordeste 21 Este 0 -- -- 92
2020-09-24 21:00:00 23.7 15 Nordeste 19 Nordeste 0 -- -- 89
2020-09-24 20:00:00 24.1 8 Este 10 Este 0 -- -- 84
2020-09-24 19:00:00 24.5 3 Sur 8 Sudoeste 0 -- -- 82
2020-09-24 18:00:00 25.2 4 Sur 11 Sudoeste 0 -- -- 79
2020-09-24 17:00:00 24.8 9 Sudoeste 16 Oeste 0 -- -- 81
2020-09-24 16:00:00 24.8 8 Sudoeste 15 Este 0 -- -- 80
2020-09-24 15:00:00 24.8 7 Este 17 Este 0 -- -- 79
2020-09-24 14:00:00 23.5 15 Sudeste 19 Sudeste 0 -- -- 85
2020-09-24 13:00:00 24.5 7 Este 15 Nordeste 0 -- -- 78
2020-09-24 12:00:00 24.7 9 Nordeste 15 Nordeste 0 -- -- 79
2020-09-24 11:00:00 24.9 3 Sudoeste 16 Oeste 0 -- -- 74
2020-09-24 10:00:00 24.1 6 Oeste 13 Oeste 0 -- -- 74
2020-09-24 09:00:00 22.5 0 Calma 10 Noroeste 0 -- -- 87
2020-09-24 08:00:00 22.4 5 Noroeste 11 Noroeste 0.3 -- -- 92
2020-09-24 07:00:00 22.9 3 Sudoeste 21 Sudoeste 0.6 -- -- 87
2020-09-24 06:00:00 23.6 15 Sudoeste 22 Sudoeste 0.8 -- -- 89
2020-09-24 05:00:00 24 12 Oeste 19 Sudoeste 0 -- -- 79
2020-09-24 04:00:00 23.7 3 Norte 22 Este 0 -- -- 69
2020-09-24 03:00:00 24.3 3 Sudoeste 28 Este 0 -- -- 70
2020-09-24 02:00:00 23.7 0 Calma 11 Nordeste 0.3 -- -- 75
2020-09-24 01:00:00 24.4 4 Sudoeste 14 Sur 0.3 -- -- 72
2020-09-24 00:00:00 25.4 7 Oeste 21 Oeste 0 -- -- 75
2020-09-23 23:00:00 25.8 3 Nordeste 14 Nordeste 0 -- -- 53
2020-09-23 22:00:00 25.3 10 Nordeste 16 Nordeste 0 -- -- 63
2020-09-23 21:00:00 25.3 0 Calma 14 Nordeste 0 -- -- 69
2020-09-23 20:00:00 24.9 12 Nordeste 17 Este 0 -- -- 81
2020-09-23 19:00:00 24.7 0 Calma 18 Sudeste 0 -- -- 84
2020-09-23 18:00:00 24.5 9 Sudeste 33 Sudeste 0 -- -- 80
2020-09-23 17:00:00 25.5 18 Este 27 Nordeste 0 -- -- 72
2020-09-23 16:00:00 25.6 10 Este 14 Este 0 -- -- 77
2020-09-23 15:00:00 25.7 9 Sur 14 Sudoeste 0 -- -- 74
2020-09-23 14:00:00 26 14 Sudoeste 22 Sudoeste 0 -- -- 73
2020-09-23 13:00:00 25.6 13 Sudoeste 18 Sudoeste 0 -- -- 74
2020-09-23 12:00:00 25.8 10 Oeste 22 Oeste 0 -- -- 73
2020-09-23 11:00:00 25.1 11 Oeste 19 Oeste 0 -- -- 76
2020-09-23 10:00:00 25.4 5 Oeste 11 Oeste 0 -- -- 76
2020-09-23 09:00:00 23.3 3 Sudoeste 5 Este 0 -- -- 94
2020-09-23 08:00:00 22.6 2 Este 5 Sudoeste 0 -- -- 94
2020-09-23 07:00:00 23.2 4 Sur 13 Sudoeste 0 -- -- 93
2020-09-23 06:00:00 23.5 4 Oeste 21 Oeste 0 -- -- 92
2020-09-23 05:00:00 23.4 8 Oeste 17 Oeste 0 -- -- 93
2020-09-23 04:00:00 23.1 0 Calma 7 Nordeste 0 -- -- 94
2020-09-23 03:00:00 23.1 3 Nordeste 12 Sudoeste 0 -- -- 94
2020-09-23 02:00:00 23.2 8 Sur 12 Sur 0 -- -- 94
2020-09-23 01:00:00 23.8 6 Sudoeste 9 Sudoeste 0 -- -- 91
2020-09-23 00:00:00 23.8 5 Oeste 14 Oeste 0 -- -- 90
2020-09-22 23:00:00 23.8 9 Sudoeste 20 Sudoeste 0 -- -- 88
2020-09-22 22:00:00 24 10 Oeste 22 Oeste 0 -- -- 84
2020-09-22 21:00:00 24.1 9 Oeste 15 Oeste 0 -- -- 83
2020-09-22 20:00:00 24.1 8 Sudoeste 14 Sudoeste 0 -- -- 84
2020-09-22 19:00:00 25.2 8 Oeste 13 Sudoeste 0 -- -- 77
2020-09-22 18:00:00 25.2 9 Sudoeste 13 Sur 0 -- -- 77
2020-09-22 17:00:00 25.8 11 Sudoeste 16 Sudoeste 0 -- -- 70
2020-09-22 16:00:00 26.3 11 Sudoeste 17 Sudoeste 0 -- -- 69
2020-09-22 15:00:00 25.8 8 Sur 14 Sudoeste 0 -- -- 73
2020-09-22 14:00:00 25.7 12 Sudoeste 14 Sudoeste 0 -- -- 74
2020-09-22 13:00:00 25.2 11 Sudoeste 15 Oeste 0 -- -- 76
2020-09-22 12:00:00 25.3 11 Oeste 19 Sudoeste 0 -- -- 80
2020-09-22 11:00:00 24.9 7 Oeste 14 Oeste 0 -- -- 80
2020-09-22 10:00:00 23.4 2 Sur 5 Sudoeste 0 -- -- 92
2020-09-22 09:00:00 22.7 2 Sudoeste 6 Sudoeste 0 -- -- 96
2020-09-22 08:00:00 21.6 0 Calma 7 Nordeste 0 -- -- 96
2020-09-22 07:00:00 22.2 0 Calma 5 Oeste 0 -- -- 96
2020-09-22 06:00:00 21.7 0 Calma 7 Oeste 0 -- -- 96
2020-09-22 05:00:00 22.5 3 Oeste 7 Noroeste 0 -- -- 96
2020-09-22 04:00:00 22.1 0 Calma 7 Oeste 0 -- -- 95
2020-09-22 03:00:00 22.4 0 Calma 9 Oeste 0 -- -- 95
2020-09-22 02:00:00 22.6 2 Noroeste 9 Oeste 0 -- -- 95
2020-09-22 01:00:00 22.9 3 Sudoeste 8 Sur 0 -- -- 95
2020-09-22 00:00:00 22.8 0 Calma 6 Sur 0 -- -- 95
2020-09-21 23:00:00 23.1 4 Sur 10 Sudoeste 0 -- -- 94
2020-09-21 22:00:00 23.5 7 Sudoeste 14 Oeste 0 -- -- 91
2020-09-21 21:00:00 23.5 7 Oeste 15 Sudoeste 0 -- -- 89
2020-09-21 20:00:00 23.8 9 Oeste 19 Oeste 0 -- -- 87
2020-09-21 19:00:00 24.3 12 Oeste 22 Oeste 0 -- -- 84
2020-09-21 18:00:00 25.2 11 Oeste 21 Oeste 0 -- -- 77
2020-09-21 17:00:00 25.3 12 Oeste 26 Oeste 0 -- -- 76
2020-09-21 16:00:00 25.4 15 Oeste 27 Oeste 0 -- -- 74
2020-09-21 15:00:00 27.6 5 Noroeste 31 Este 0 -- -- 67
2020-09-21 14:00:00 27.3 21 Este 31 Este 0 -- -- 68
2020-09-21 13:00:00 25.3 8 Sudeste 15 Sudeste 0 -- -- 75
2020-09-21 12:00:00 24.2 13 Sudeste 18 Sudeste 0 -- -- 83
2020-09-21 11:00:00 23.6 15 Este 17 Este 0 -- -- 86
2020-09-21 10:00:00 23.6 9 Sudeste 15 Sudeste 0 -- -- 88
2020-09-21 09:00:00 22 0 Calma 4 Noroeste 0 -- -- 92
2020-09-21 08:00:00 20.7 0 Calma 5 Noroeste 0 -- -- 94
2020-09-21 07:00:00 21 0 Calma 7 Noroeste 0 -- -- 93
2020-09-21 06:00:00 21.1 0 Calma 4 Norte 0 -- -- 93
2020-09-21 05:00:00 21.6 0 Calma 3 Noroeste 0 -- -- 93
2020-09-21 04:00:00 21.7 2 Nordeste 6 Nordeste 0 -- -- 93
2020-09-21 03:00:00 21.9 5 Este 7 Este 0 -- -- 92
2020-09-21 02:00:00 22.9 4 Oeste 14 Oeste 0 -- -- 89
2020-09-21 01:00:00 22.4 2 Noroeste 11 Noroeste 0 -- -- 87
2020-09-21 00:00:00 22.8 5 Noroeste 10 Oeste 0 -- -- 86
2020-09-20 23:00:00 22.9 2 Oeste 8 Sudeste 0 -- -- 85
2020-09-20 22:00:00 23 7 Sudeste 9 Sudeste 0 -- -- 89
2020-09-20 21:00:00 23.3 5 Sudoeste 13 Sudoeste 0 -- -- 85
2020-09-20 20:00:00 23.9 10 Sudoeste 18 Sudoeste 0 -- -- 83
2020-09-20 19:00:00 24.4 12 Oeste 23 Sudoeste 0 -- -- 77
2020-09-20 18:00:00 25.8 9 Oeste 17 Oeste 0 -- -- 70
2020-09-20 17:00:00 26.2 10 Oeste 18 Sudoeste 0 -- -- 67
2020-09-20 16:00:00 25.9 11 Sudoeste 18 Sudoeste 0 -- -- 67
2020-09-20 15:00:00 25.6 12 Sudoeste 19 Oeste 0 -- -- 65
2020-09-20 14:00:00 26.3 11 Oeste 21 Oeste 0 -- -- 68
2020-09-20 13:00:00 25.7 12 Sudoeste 18 Oeste 0 -- -- 69
2020-09-20 12:00:00 25.8 9 Sudoeste 17 Sudoeste 0 -- -- 68
2020-09-20 11:00:00 24.8 7 Oeste 11 Oeste 0 -- -- 75
2020-09-20 10:00:00 23.7 4 Sudeste 6 Sudeste 0 -- -- 77
2020-09-20 09:00:00 22.5 0 Calma 7 Noroeste 0 -- -- 85
2020-09-20 08:00:00 19.7 3 Norte 8 Nordeste 0 -- -- 93
2020-09-20 07:00:00 21.2 3 Oeste 8 Sudoeste 0 -- -- 93
2020-09-20 06:00:00 20.8 0 Calma 7 Noroeste 0 -- -- 90
2020-09-20 05:00:00 21.2 0 Calma 6 Norte 0 -- -- 88
2020-09-20 04:00:00 21.4 0 Calma 11 Sudeste 0 -- -- 85
2020-09-20 03:00:00 22.3 3 Sudeste 6 Sudeste 0 -- -- 85
2020-09-20 02:00:00 21.7 0 Calma 14 Nordeste 0 -- -- 79
2020-09-20 01:00:00 22.6 10 Nordeste 15 Nordeste 0 -- -- 76
2020-09-20 00:00:00 22.6 4 Nordeste 16 Este 0 -- -- 77
2020-09-19 23:00:00 22.9 15 Este 19 Este 0 -- -- 78
2020-09-19 22:00:00 23.4 3 Oeste 15 Sudoeste 0 -- -- 83
2020-09-19 21:00:00 23.6 7 Oeste 21 Sudoeste 0 -- -- 81
2020-09-19 20:00:00 24.2 5 Oeste 13 Oeste 0 -- -- 73
2020-09-19 19:00:00 25.5 7 Oeste 15 Oeste 0 -- -- 69
2020-09-19 18:00:00 25.9 9 Oeste 21 Sudoeste 0 -- -- 68
2020-09-19 17:00:00 25.7 11 Sudoeste 23 Sudoeste 0 -- -- 65
2020-09-19 16:00:00 26.5 11 Oeste 26 Oeste 0 -- -- 63
2020-09-19 15:00:00 26.7 11 Sudoeste 71 Este 0 -- -- 60
2020-09-19 14:00:00 26.6 31 Nordeste 71 Nordeste 0 -- -- 59
2020-09-19 13:00:00 26.1 10 Nordeste 71 Nordeste 0 -- -- 61
2020-09-19 12:00:00 26.3 5 Sudoeste 21 Oeste 0 -- -- 65
2020-09-19 11:00:00 25.3 10 Oeste 18 Sudoeste 0 -- -- 71
2020-09-19 10:00:00 26.3 0 Calma 9 Este 0 -- -- 65
2020-09-19 09:00:00 24.1 0 Calma 6 Noroeste 0 -- -- 81
2020-09-19 08:00:00 20.9 0 Calma 7 Norte 0 -- -- 89
2020-09-19 07:00:00 21.5 0 Calma 13 Nordeste 0 -- -- 77
2020-09-19 06:00:00 21.4 0 Calma 20 Nordeste 0 -- -- 85
2020-09-19 05:00:00 21.4 8 Este 19 Este 0 -- -- 83
2020-09-19 04:00:00 21.7 0 Calma 8 Nordeste 0 -- -- 80
2020-09-19 03:00:00 22 2 Norte 7 Este 0 -- -- 89
2020-09-19 02:00:00 22.6 0 Calma 8 Sudeste 0 -- -- 89
2020-09-19 01:00:00 22.6 0 Calma 9 Noroeste 0 -- -- 89
2020-09-19 00:00:00 23.3 6 Oeste 11 Oeste 0 -- -- 87
2020-09-18 23:00:00 23.3 5 Oeste 9 Oeste 0 -- -- 85
2020-09-18 22:00:00 23.5 2 Oeste 9 Oeste 0 -- -- 81
2020-09-18 21:00:00 23.8 5 Oeste 14 Sudoeste 0 -- -- 78
2020-09-18 20:00:00 24.4 7 Oeste 14 Oeste 0 -- -- 74
2020-09-18 19:00:00 25.4 8 Oeste 18 Oeste 0 -- -- 72
2020-09-18 18:00:00 25.8 10 Oeste 15 Oeste 0 -- -- 68
2020-09-18 17:00:00 26.7 6 Oeste 20 Sudoeste 0 -- -- 65
2020-09-18 16:00:00 26.5 12 Oeste 20 Sudoeste 0 -- -- 68
2020-09-18 15:00:00 26.4 11 Oeste 24 Sudoeste 0 -- -- 68
2020-09-18 14:00:00 25.7 18 Sudoeste 26 Sudoeste 0 -- -- 70
2020-09-18 13:00:00 26.6 9 Oeste 19 Oeste 0 -- -- 66
2020-09-18 12:00:00 26.1 9 Oeste 19 Sudoeste 0 -- -- 69
2020-09-18 11:00:00 25 9 Sudeste 10 Sudeste 0 -- -- 70
2020-09-18 10:00:00 25.4 4 Nordeste 8 Nordeste 0 -- -- 69
2020-09-18 09:00:00 23.1 0 Calma 3 Norte 0 -- -- 87
2020-09-18 08:00:00 22.2 2 Este 4 Nordeste 0 -- -- 89
2020-09-18 07:00:00 22.3 0 Calma 9 Oeste 0 -- -- 87
2020-09-18 06:00:00 23.1 5 Oeste 12 Sudoeste 0 -- -- 84
2020-09-18 05:00:00 23.3 4 Oeste 7 Oeste 0 -- -- 83
2020-09-18 04:00:00 23 0 Calma 18 Sur 0 -- -- 79
2020-09-18 03:00:00 23.4 15 Sur 19 Sur 0 -- -- 89
2020-09-18 02:00:00 23.6 12 Sudeste 14 Sur 0 -- -- 86
2020-09-18 01:00:00 23.9 4 Sudoeste 17 Sur 0 -- -- 86
2020-09-18 00:00:00 23.9 5 Sur 9 Sur 0 -- -- 84
2020-09-17 23:00:00 23.3 5 Nordeste 10 Este 0 -- -- 89
2020-09-17 22:00:00 25 0 Calma 3 Nordeste 0 -- -- 85
2020-09-17 21:00:00 23.8 0 Calma 10 Sudeste 0 -- -- 91
2020-09-17 20:00:00 24 8 Sudeste 12 Sudeste 0 -- -- 92
2020-09-17 19:00:00 24.9 6 Sur 14 Sudoeste 0 -- -- 85
2020-09-17 18:00:00 25.6 9 Sudoeste 23 Oeste 0 -- -- 80
2020-09-17 17:00:00 26 14 Oeste 23 Oeste 0 -- -- 75
2020-09-17 16:00:00 26.9 12 Oeste 22 Oeste 0 -- -- 67
2020-09-17 15:00:00 27.4 9 Oeste 15 Oeste 0 -- -- 66
2020-09-17 14:00:00 27.3 7 Sudoeste 13 Sudeste 0 -- -- 68
2020-09-17 13:00:00 27 9 Sudoeste 12 Sudoeste 0 -- -- 70
2020-09-17 12:00:00 25.6 9 Sudoeste 15 Sudoeste 0 -- -- 76
2020-09-17 11:00:00 25.8 10 Oeste 22 Oeste 0 -- -- 74
2020-09-17 10:00:00 24.9 6 Oeste 17 Oeste 0 -- -- 75
2020-09-17 09:00:00 24.2 0 Calma 12 Este 0 -- -- 82
2020-09-17 08:00:00 23 0 Calma 10 Noroeste 0 -- -- 91
2020-09-17 07:00:00 23.6 5 Sudoeste 11 Oeste 0 -- -- 92
2020-09-17 06:00:00 23.4 3 Sudoeste 9 Sur 0 -- -- 93
2020-09-17 05:00:00 23.5 6 Sur 9 Sur 0 -- -- 93
2020-09-17 04:00:00 23.3 3 Oeste 8 Oeste 0 -- -- 94
2020-09-17 03:00:00 23.3 0 Calma 8 Sudoeste 0 -- -- 95
2020-09-17 02:00:00 23.8 3 Sudoeste 15 Sudoeste 0 -- -- 93
2020-09-17 01:00:00 24 10 Oeste 19 Oeste 0 -- -- 92
2020-09-17 00:00:00 24.8 0 Calma 10 Oeste 0 -- -- 83
2020-09-16 23:00:00 24.6 6 Sudoeste 10 Oeste 0 -- -- 87
2020-09-16 22:00:00 24.4 0 Calma 5 Sudeste 0 -- -- 88
2020-09-16 21:00:00 24.3 4 Oeste 9 Oeste 0 -- -- 87
2020-09-16 20:00:00 25.2 3 Oeste 10 Sudoeste 0 -- -- 81
2020-09-16 19:00:00 25.4 7 Sudoeste 18 Sudoeste 0 -- -- 83
2020-09-16 18:00:00 26 10 Oeste 19 Oeste 0 -- -- 74
2020-09-16 17:00:00 27.9 9 Oeste 18 Oeste 0 -- -- 58
2020-09-16 16:00:00 27 12 Oeste 30 Oeste 0 -- -- 66
2020-09-16 15:00:00 26.1 13 Oeste 31 Oeste 0 -- -- 75
2020-09-16 14:00:00 26.6 8 Oeste 34 Nordeste 0 -- -- 72
2020-09-16 13:00:00 26.2 14 Oeste 29 Sudoeste 0 -- -- 74
2020-09-16 12:00:00 25.7 7 Oeste 18 Oeste 0 -- -- 73
2020-09-16 11:00:00 25.5 10 Sudoeste 14 Sudoeste 0 -- -- 78
2020-09-16 10:00:00 25.8 6 Oeste 14 Oeste 0 -- -- 71
2020-09-16 09:00:00 24.5 8 Oeste 17 Oeste 0 -- -- 81
2020-09-16 08:00:00 24 7 Oeste 19 Oeste 0 -- -- 83
2020-09-16 07:00:00 24.1 9 Oeste 17 Oeste 0 -- -- 78
2020-09-16 06:00:00 23.7 3 Noroeste 8 Oeste 0 -- -- 76
2020-09-16 05:00:00 23.9 4 Oeste 16 Oeste 0 -- -- 77
2020-09-16 04:00:00 23.7 9 Sudoeste 12 Sudoeste 0 -- -- 85
2020-09-16 03:00:00 23 3 Noroeste 15 Oeste 0 -- -- 83
2020-09-16 02:00:00 24.1 7 Oeste 12 Oeste 0 -- -- 80
2020-09-16 01:00:00 24.2 6 Oeste 12 Oeste 0 -- -- 80
2020-09-16 00:00:00 24.1 4 Oeste 11 Oeste 0 -- -- 79
2020-09-15 23:00:00 24 6 Oeste 14 Oeste 0 -- -- 82
2020-09-15 22:00:00 23.7 5 Oeste 10 Oeste 0 -- -- 85
2020-09-15 21:00:00 23.7 5 Oeste 22 Oeste 0 -- -- 86
2020-09-15 20:00:00 24.1 10 Oeste 22 Noroeste 0 -- -- 82
2020-09-15 19:00:00 24.5 6 Oeste 15 Oeste 0 -- -- 79
2020-09-15 18:00:00 24.8 6 Oeste 22 Oeste 0 -- -- 78
2020-09-15 17:00:00 25 12 Oeste 23 Sudoeste 0 -- -- 78
2020-09-15 16:00:00 25.7 9 Oeste 31 Nordeste 0 -- -- 71
2020-09-15 15:00:00 27.9 7 Oeste 72 Nordeste 0 -- -- 56
2020-09-15 14:00:00 27.3 39 Nordeste 72 Nordeste 0 -- -- 57
2020-09-15 13:00:00 27.1 33 Nordeste 72 Este 0 -- -- 60
2020-09-15 12:00:00 25.8 10 Nordeste 71 Este 0 -- -- 67
2020-09-15 11:00:00 24.4 15 Sudeste 24 Norte 0 -- -- 74
2020-09-15 10:00:00 23.9 3 Norte 24 Sudoeste 0 -- -- 83
2020-09-15 09:00:00 23.7 5 Sudoeste 18 Nordeste 0 -- -- 78
2020-09-15 08:00:00 23.7 17 Nordeste 27 Nordeste 0 -- -- 73
2020-09-15 07:00:00 23.6 4 Nordeste 15 Nordeste 0 -- -- 73
2020-09-15 06:00:00 24.1 12 Sur 19 Oeste 0 -- -- 70
2020-09-15 05:00:00 24.5 6 Oeste 72 Nordeste 0 -- -- 67
2020-09-15 04:00:00 24.8 33 Nordeste 71 Nordeste 0 -- -- 58
2020-09-15 03:00:00 24.6 29 Nordeste 71 Nordeste 0 -- -- 59
2020-09-15 02:00:00 24.8 14 Nordeste 29 Este 0 -- -- 62
2020-09-15 01:00:00 25.8 12 Nordeste 40 Nordeste 0 -- -- 51
2020-09-15 00:00:00 25 19 Nordeste 32 Nordeste 0 -- -- 67
2020-09-14 23:00:00 24 8 Oeste 23 Sudoeste 0 -- -- 86
2020-09-14 22:00:00 24.5 0 Calma 24 Oeste 0 -- -- 78
2020-09-14 21:00:00 25.8 3 Norte 13 Sudoeste 0 -- -- 66
2020-09-14 20:00:00 25 4 Nordeste 13 Oeste 0 -- -- 75
2020-09-14 19:00:00 24.2 9 Oeste 17 Sudoeste 0 -- -- 83
2020-09-14 18:00:00 25.4 9 Oeste 24 Sudoeste 0 -- -- 75
2020-09-14 17:00:00 25.7 14 Oeste 28 Oeste 0 -- -- 73
2020-09-14 16:00:00 25.9 12 Oeste 28 Oeste 0 -- -- 71
2020-09-14 15:00:00 26.8 7 Oeste 72 Nordeste 0 -- -- 67
2020-09-14 14:00:00 25.8 36 Este 72 Nordeste 0 -- -- 67
2020-09-14 13:00:00 25.7 31 Este 71 Nordeste 0 -- -- 67
2020-09-14 12:00:00 25.8 29 Este 70 Este 0 -- -- 69
2020-09-14 11:00:00 25 7 Sudoeste 26 Nordeste 0 -- -- 71
2020-09-14 10:00:00 24.4 17 Nordeste 33 Nordeste 0 -- -- 70
2020-09-14 09:00:00 22.9 2 Norte 6 Nordeste 0 -- -- 88
2020-09-14 08:00:00 21 0 Calma 6 Norte 0 -- -- 93
2020-09-14 07:00:00 21.1 4 Norte 10 Nordeste 0 -- -- 91
2020-09-14 06:00:00 21.5 0 Calma 7 Norte 0 -- -- 95
2020-09-14 05:00:00 21.3 3 Norte 5 Nordeste 0 -- -- 94
2020-09-14 04:00:00 21.2 0 Calma 7 Sudoeste 0 -- -- 94
2020-09-14 03:00:00 22.1 3 Oeste 9 Oeste 0 -- -- 93
2020-09-14 02:00:00 22.5 4 Oeste 10 Oeste 0 -- -- 93
2020-09-14 01:00:00 22.6 4 Oeste 10 Oeste 0 -- -- 91
2020-09-14 00:00:00 23 0 Calma 18 Nordeste 0 -- -- 86
2020-09-13 23:00:00 23.3 12 Nordeste 22 Este 0 -- -- 85
2020-09-13 22:00:00 23.5 17 Este 22 Este 0 -- -- 85
2020-09-13 21:00:00 23 10 Este 13 Este 0 -- -- 89
2020-09-13 20:00:00 23.1 6 Este 10 Este 0 -- -- 86
2020-09-13 19:00:00 23.5 7 Sudeste 10 Sudeste 0 -- -- 80
2020-09-13 18:00:00 24.3 5 Sur 11 Sudeste 0 -- -- 74
2020-09-13 17:00:00 23.9 6 Sur 13 Sur 0 -- -- 77
2020-09-13 16:00:00 24.2 9 Sur 14 Sur 0 -- -- 77
2020-09-13 15:00:00 24.4 8 Sudeste 13 Sudeste 0 -- -- 78
2020-09-13 14:00:00 23.4 12 Sudeste 14 Sudeste 0 -- -- 83
2020-09-13 13:00:00 23.1 10 Sudeste 13 Sudeste 0 -- -- 83
2020-09-13 12:00:00 23.2 8 Este 21 Este 0 -- -- 81
2020-09-13 11:00:00 23.2 18 Este 22 Este 0 -- -- 82
2020-09-13 10:00:00 22.8 10 Este 15 Este 0 -- -- 84
2020-09-13 09:00:00 22.5 13 Este 18 Este 0 -- -- 89
2020-09-13 08:00:00 22.1 11 Este 21 Este 0 -- -- 89
2020-09-13 07:00:00 22.3 15 Nordeste 22 Este 0 -- -- 86
2020-09-13 06:00:00 22.4 16 Nordeste 21 Nordeste 0 -- -- 85
2020-09-13 05:00:00 22.5 6 Este 17 Nordeste 0 -- -- 85
2020-09-13 04:00:00 22.7 13 Nordeste 23 Nordeste 0 -- -- 83
2020-09-13 03:00:00 22.6 18 Nordeste 23 Este 0 -- -- 83
2020-09-13 02:00:00 22.6 18 Nordeste 24 Nordeste 0 -- -- 81
2020-09-13 01:00:00 22.7 19 Este 24 Este 0 -- -- 82
2020-09-13 00:00:00 23 13 Nordeste 22 Nordeste 0 -- -- 79
2020-09-12 23:00:00 22.9 18 Nordeste 24 Este 0 -- -- 80
2020-09-12 22:00:00 23.2 19 Nordeste 26 Este 0 -- -- 80
2020-09-12 21:00:00 23.3 22 Este 28 Este 0 -- -- 83
2020-09-12 20:00:00 23.5 17 Este 21 Este 0 -- -- 81
2020-09-12 19:00:00 23.6 10 Este 13 Este 0 -- -- 77
2020-09-12 18:00:00 24.6 9 Sur 14 Sudeste 0 -- -- 74
2020-09-12 17:00:00 25 9 Sudeste 13 Sudeste 0 -- -- 72
2020-09-12 16:00:00 24.7 8 Sur 19 Sudoeste 0 -- -- 72
2020-09-12 15:00:00 24.8 15 Sudoeste 22 Oeste 0 -- -- 70
2020-09-12 14:00:00 24.8 16 Oeste 29 Oeste 0 -- -- 73
2020-09-12 13:00:00 24.9 17 Oeste 28 Oeste 0 -- -- 75
2020-09-12 12:00:00 25.3 13 Sudoeste 20 Oeste 0 -- -- 74
2020-09-12 11:00:00 24.8 9 Oeste 18 Sudoeste 0 -- -- 69
2020-09-12 10:00:00 24.4 12 Este 18 Este 0 -- -- 71
2020-09-12 09:00:00 23.6 0 Calma 5 Noroeste 0 -- -- 82
2020-09-12 08:00:00 22.3 0 Calma 8 Sudoeste 0 -- -- 87
2020-09-12 07:00:00 22.6 3 Oeste 10 Sur 0 -- -- 86
2020-09-12 06:00:00 22.4 0 Calma 5 Este 0 -- -- 85
2020-09-12 05:00:00 22.4 3 Nordeste 10 Este 0 -- -- 86
2020-09-12 04:00:00 22.2 0 Calma 12 Noroeste 0 -- -- 88
2020-09-12 03:00:00 22.9 8 Sudoeste 18 Sudeste 0 -- -- 88
2020-09-12 02:00:00 22.9 14 Sudeste 15 Sudeste 0 -- -- 89
2020-09-12 01:00:00 23.1 0 Calma 18 Oeste 0 -- -- 82
2020-09-12 00:00:00 23.2 4 Sudoeste 14 Sudoeste 0 -- -- 87
2020-09-11 23:00:00 23.2 4 Nordeste 7 Nordeste 0 -- -- 85
2020-09-11 22:00:00 23.2 0 Calma 14 Sur 0 -- -- 87
2020-09-11 21:00:00 23.3 12 Sur 15 Sur 0 -- -- 87
2020-09-11 20:00:00 23.6 12 Sudoeste 24 Oeste 0 -- -- 81
2020-09-11 19:00:00 24.3 15 Oeste 28 Oeste 0 -- -- 76
2020-09-11 18:00:00 25.3 13 Oeste 26 Sudoeste 0 -- -- 71
2020-09-11 17:00:00 25.1 5 Sur 13 Sudoeste 0 -- -- 69
2020-09-11 16:00:00 26.2 8 Sudoeste 23 Sudeste 0 -- -- 70
2020-09-11 15:00:00 25.2 18 Sudeste 24 Sudeste 0 -- -- 79
2020-09-11 14:00:00 25.8 9 Sudoeste 28 Oeste 0 -- -- 68
2020-09-11 13:00:00 25 14 Oeste 33 Oeste 0 -- -- 73
2020-09-11 12:00:00 25 15 Oeste 32 Oeste 0 -- -- 69
2020-09-11 11:00:00 24.8 12 Oeste 20 Oeste 0 -- -- 73
2020-09-11 10:00:00 25 3 Sudeste 11 Este 0 -- -- 71
2020-09-11 09:00:00 23.5 10 Este 14 Sudeste 0 -- -- 82
2020-09-11 08:00:00 22.5 0 Calma 15 Oeste 0 -- -- 89
2020-09-11 07:00:00 22 4 Oeste 9 Oeste 0 -- -- 91
2020-09-11 06:00:00 21.8 3 Norte 7 Nordeste 0 -- -- 92
2020-09-11 05:00:00 22.4 0 Calma 10 Sudoeste 0 -- -- 91
2020-09-11 04:00:00 22.5 5 Sudoeste 11 Sudoeste 0 -- -- 91
2020-09-11 03:00:00 22.7 4 Oeste 11 Oeste 0 -- -- 91
2020-09-11 02:00:00 22.5 4 Oeste 14 Noroeste 0 -- -- 91
2020-09-11 01:00:00 22.6 3 Oeste 9 Noroeste 0 -- -- 90
2020-09-11 00:00:00 22.8 0 Calma 8 Sudoeste 0 -- -- 88
2020-09-10 23:00:00 23.2 5 Oeste 18 Oeste 0 -- -- 89
2020-09-10 22:00:00 23.3 9 Oeste 25 Oeste 0 -- -- 87
2020-09-10 21:00:00 23.6 8 Oeste 17 Oeste 0 -- -- 85
2020-09-10 20:00:00 23.8 8 Sudoeste 14 Sur 0 -- -- 85
2020-09-10 19:00:00 24.1 11 Sudeste 15 Sudeste 0 -- -- 85
2020-09-10 18:00:00 25.2 12 Sudoeste 27 Oeste 0 -- -- 75
2020-09-10 17:00:00 25.8 15 Oeste 29 Oeste 0 -- -- 74
2020-09-10 16:00:00 26.3 11 Oeste 24 Oeste 0 -- -- 72
2020-09-10 15:00:00 28.5 6 Este 32 Este 0 -- -- 62
2020-09-10 14:00:00 26.1 6 Sur 14 Sudoeste 0 -- -- 73
2020-09-10 13:00:00 26 8 Sudoeste 22 Oeste 0 -- -- 71
2020-09-10 12:00:00 25.5 14 Oeste 27 Oeste 0 -- -- 72
2020-09-10 11:00:00 27.1 10 Oeste 22 Oeste 0 -- -- 61
2020-09-10 10:00:00 26.3 6 Oeste 15 Oeste 0 -- -- 68
2020-09-10 09:00:00 25.2 4 Oeste 17 Oeste 0 -- -- 75
2020-09-10 08:00:00 23.6 9 Oeste 14 Sudoeste 0 -- -- 82
2020-09-10 07:00:00 22.8 3 Oeste 15 Noroeste 0 -- -- 76
2020-09-10 06:00:00 23.1 2 Noroeste 10 Noroeste 0 -- -- 75
2020-09-10 05:00:00 23.1 2 Noroeste 6 Sudoeste 0 -- -- 78
2020-09-10 04:00:00 24.2 4 Oeste 11 Oeste 0 -- -- 77
2020-09-10 03:00:00 24.3 3 Oeste 9 Noroeste 0 -- -- 77
2020-09-10 02:00:00 23.9 3 Oeste 15 Oeste 0 -- -- 86
2020-09-10 01:00:00 24.9 9 Oeste 41 Nordeste 0 -- -- 81
2020-09-10 00:00:00 27.1 27 Nordeste 66 Nordeste 0 -- -- 45
2020-09-09 23:00:00 26.6 6 Sudoeste 10 Sudoeste 0 -- -- 64
2020-09-09 22:00:00 26.1 5 Oeste 9 Oeste 0 -- -- 75
2020-09-09 21:00:00 25.4 3 Este 11 Sudoeste 0 -- -- 86
2020-09-09 20:00:00 25.6 6 Sudoeste 16 Oeste 0 -- -- 86
2020-09-09 19:00:00 27.6 9 Oeste 21 Oeste 0 -- -- 63
2020-09-09 18:00:00 28.5 13 Oeste 28 Sudoeste 0 -- -- 57
2020-09-09 17:00:00 28.9 7 Sudoeste 24 Oeste 0 -- -- 60
2020-09-09 16:00:00 29.2 9 Oeste 28 Norte 0 -- -- 53
2020-09-09 15:00:00 32.6 6 Oeste 35 Sudoeste 0 -- -- 42
2020-09-09 14:00:00 31.2 11 Oeste 68 Nordeste 0 -- -- 45
2020-09-09 13:00:00 33.4 17 Nordeste 44 Nordeste 0 -- -- 36
2020-09-09 12:00:00 29.4 9 Noroeste 23 Oeste 0 -- -- 48
2020-09-09 11:00:00 28.3 6 Sudoeste 22 Oeste 0 -- -- 53
2020-09-09 10:00:00 30.4 3 Oeste 17 Sur 0 -- -- 47
2020-09-09 09:00:00 27.6 4 Oeste 13 Oeste 0 -- -- 52
2020-09-09 08:00:00 24.8 4 Noroeste 10 Nordeste 0 -- -- 52
2020-09-09 07:00:00 23.6 3 Noroeste 13 Nordeste 0 -- -- 57
2020-09-09 06:00:00 24.1 0 Calma 7 Oeste 0 -- -- 62
2020-09-09 05:00:00 26 2 Sudoeste 37 Nordeste 0 -- -- 53
2020-09-09 04:00:00 30.4 8 Nordeste 28 Nordeste 0 -- -- 35
2020-09-09 03:00:00 23.9 3 Noroeste 15 Norte 0 -- -- 88
2020-09-09 02:00:00 24.5 4 Oeste 15 Oeste 0 -- -- 93
2020-09-09 01:00:00 24.5 8 Oeste 14 Oeste 0 -- -- 87
2020-09-09 00:00:00 24 0 Calma 10 Oeste 0 -- -- 82
2020-09-08 23:00:00 25.6 7 Oeste 14 Oeste 0 -- -- 76
2020-09-08 22:00:00 24.9 2 Oeste 7 Sudoeste 0 -- -- 83
2020-09-08 21:00:00 25.5 2 Sudoeste 18 Oeste 0 -- -- 81
2020-09-08 20:00:00 25.4 9 Oeste 18 Sudoeste 0 -- -- 85
2020-09-08 19:00:00 25.9 13 Oeste 21 Oeste 0 -- -- 81
2020-09-08 18:00:00 28.7 13 Sudoeste 22 Sudoeste 0 -- -- 61
2020-09-08 17:00:00 28 10 Sudoeste 31 Oeste 0 -- -- 67
2020-09-08 16:00:00 31.2 5 Sur 23 Oeste 0 -- -- 39
2020-09-08 15:00:00 31.6 9 Oeste 33 Oeste 0 -- -- 42
2020-09-08 14:00:00 30.4 9 Oeste 32 Oeste 0 -- -- 49
2020-09-08 13:00:00 30.3 12 Oeste 23 Oeste 0 -- -- 46
2020-09-08 12:00:00 28.1 12 Oeste 21 Oeste 0 -- -- 61
2020-09-08 11:00:00 27.5 9 Oeste 19 Oeste 0 -- -- 64
2020-09-08 10:00:00 26.6 9 Oeste 14 Oeste 0 -- -- 65
2020-09-08 09:00:00 25.6 2 Oeste 19 Sudoeste 0 -- -- 75
2020-09-08 08:00:00 23.6 3 Oeste 12 Oeste 0 -- -- 87
2020-09-08 07:00:00 25.9 4 Noroeste 15 Oeste 0 -- -- 56
2020-09-08 06:00:00 23.6 3 Oeste 8 Oeste 0 -- -- 70
2020-09-08 05:00:00 23.8 3 Norte 13 Oeste 0 -- -- 66
2020-09-08 04:00:00 25.2 6 Oeste 17 Oeste 0 -- -- 67
2020-09-08 03:00:00 24 7 Oeste 14 Oeste 0 -- -- 87
2020-09-08 02:00:00 24.2 4 Oeste 14 Oeste 0 -- -- 86
2020-09-08 01:00:00 24.8 9 Oeste 16 Oeste 0 -- -- 79
2020-09-08 00:00:00 24.7 6 Oeste 12 Oeste 0 -- -- 77
2020-09-07 23:00:00 24.7 7 Oeste 21 Oeste 0 -- -- 83
2020-09-07 22:00:00 24.3 10 Oeste 18 Oeste 0 -- -- 87
2020-09-07 21:00:00 24.6 8 Oeste 19 Oeste 0 -- -- 85
2020-09-07 20:00:00 24.8 12 Oeste 21 Oeste 0 -- -- 86
2020-09-07 19:00:00 26 10 Oeste 20 Oeste 0 -- -- 78
2020-09-07 18:00:00 25.8 9 Oeste 18 Oeste 0 -- -- 80
2020-09-07 17:00:00 25.6 12 Oeste 30 Oeste 0 -- -- 82
2020-09-07 16:00:00 28 2 Noroeste 22 Nordeste 0 -- -- 70
2020-09-07 15:00:00 27.5 10 Sudoeste 27 Nordeste 0 -- -- 71
2020-09-07 14:00:00 30.1 21 Nordeste 35 Este 0 -- -- 48
2020-09-07 13:00:00 26.8 5 Sudoeste 12 Oeste 0 -- -- 65
2020-09-07 12:00:00 26 6 Sudoeste 10 Sudoeste 0 -- -- 70
2020-09-07 11:00:00 25 5 Sur 10 Sur 0 -- -- 77
2020-09-07 10:00:00 24.7 8 Sudoeste 11 Sudoeste 0 -- -- 79
2020-09-07 09:00:00 24.4 2 Este 11 Este 0 -- -- 85
2020-09-07 08:00:00 23.1 10 Este 18 Este 0 -- -- 90
2020-09-07 07:00:00 23.3 10 Oeste 19 Oeste 0 -- -- 88
2020-09-07 06:00:00 23.4 5 Oeste 17 Oeste 0 -- -- 85
2020-09-07 05:00:00 23.5 8 Oeste 14 Sudoeste 0 -- -- 88
2020-09-07 04:00:00 23.2 8 Nordeste 22 Sudoeste 0 -- -- 89
2020-09-07 03:00:00 23.3 23 Sudoeste 29 Sudoeste 0 -- -- 92
2020-09-07 02:00:00 23.2 0 Calma 14 Sudoeste 0 -- -- 92
2020-09-07 01:00:00 23.3 10 Sudoeste 15 Sudoeste 0 -- -- 92
2020-09-07 00:00:00 23.5 9 Sudoeste 13 Sudoeste 0 -- -- 88
2020-09-06 23:00:00 23.9 9 Oeste 14 Oeste 0 -- -- 85
2020-09-06 22:00:00 24 5 Sur 10 Sur 0 -- -- 85
2020-09-06 21:00:00 25 6 Nordeste 22 Nordeste 0 -- -- 73
2020-09-06 20:00:00 25 0 Calma 10 Sudoeste 0 -- -- 74
2020-09-06 19:00:00 25.2 6 Sudoeste 14 Sudoeste 0 -- -- 73
2020-09-06 18:00:00 25.5 9 Oeste 20 Sudoeste 0 -- -- 72
2020-09-06 17:00:00 25.7 16 Sudoeste 22 Sudoeste 0 -- -- 71
2020-09-06 16:00:00 25.8 14 Sudoeste 21 Oeste 0 -- -- 69
2020-09-06 15:00:00 25.9 12 Oeste 23 Oeste 0 -- -- 69
2020-09-06 14:00:00 26.5 11 Oeste 28 Este 0 -- -- 67
2020-09-06 13:00:00 27.3 13 Este 27 Este 0 -- -- 62
2020-09-06 12:00:00 25.6 8 Este 17 Este 0 -- -- 70
2020-09-06 11:00:00 24.2 10 Sudeste 14 Sudeste 0 -- -- 77
2020-09-06 10:00:00 24.3 7 Este 12 Este 0 -- -- 77
2020-09-06 09:00:00 23.7 3 Oeste 13 Noroeste 0 -- -- 82
2020-09-06 08:00:00 21.9 5 Noroeste 12 Oeste 0 -- -- 89
2020-09-06 07:00:00 21.3 0 Calma 6 Este 0 -- -- 89
2020-09-06 06:00:00 21.7 0 Calma 10 Este 0 -- -- 88
2020-09-06 05:00:00 22.6 8 Este 10 Sudeste 0 -- -- 88
2020-09-06 04:00:00 22.1 0 Calma 7 Noroeste 0 -- -- 90
2020-09-06 03:00:00 23 3 Oeste 10 Oeste 0 -- -- 90
2020-09-06 02:00:00 23 3 Oeste 10 Oeste 0 -- -- 90
2020-09-06 01:00:00 23.2 4 Oeste 14 Oeste 0 -- -- 89
2020-09-06 00:00:00 23.6 6 Oeste 16 Oeste 0 -- -- 84
2020-09-05 23:00:00 23.1 7 Oeste 19 Oeste 0 -- -- 89
2020-09-05 22:00:00 23.4 9 Oeste 23 Oeste 0 -- -- 87
2020-09-05 21:00:00 24 14 Oeste 23 Oeste 0 -- -- 82
2020-09-05 20:00:00 25.6 18 Nordeste 32 Este 0 -- -- 68
2020-09-05 19:00:00 25.7 23 Este 30 Este 0 -- -- 66
2020-09-05 18:00:00 26 17 Este 29 Sudeste 0 -- -- 72
2020-09-05 17:00:00 23.8 25 Sudeste 32 Este 0 -- -- 81
2020-09-05 16:00:00 28.4 6 Oeste 36 Oeste 0 -- -- 62
2020-09-05 15:00:00 25.2 19 Oeste 34 Oeste 0 -- -- 73
2020-09-05 14:00:00 25.7 10 Sudoeste 22 Sudeste 0 -- -- 68
2020-09-05 13:00:00 25.5 18 Este 30 Nordeste 0 -- -- 68
2020-09-05 12:00:00 25 22 Nordeste 30 Nordeste 0 -- -- 69
2020-09-05 11:00:00 26.1 5 Oeste 19 Sur 0 -- -- 65
2020-09-05 10:00:00 23.3 14 Sudeste 17 Sudeste 0 -- -- 83
2020-09-05 09:00:00 23.6 5 Sudoeste 18 Oeste 0 -- -- 83
2020-09-05 08:00:00 22.5 11 Oeste 19 Oeste 0 -- -- 88
2020-09-05 07:00:00 22.2 7 Este 13 Este 0 -- -- 82
2020-09-05 06:00:00 21.8 0 Calma 5 Norte 0 -- -- 89
2020-09-05 05:00:00 22.6 0 Calma 14 Sur 0 -- -- 87
2020-09-05 04:00:00 21.8 3 Este 7 Oeste 0 -- -- 89
2020-09-05 03:00:00 22.6 3 Oeste 11 Oeste 0 -- -- 86
2020-09-05 02:00:00 22.6 6 Sur 9 Sur 0 -- -- 87
2020-09-05 01:00:00 22.4 4 Nordeste 9 Nordeste 0 -- -- 86
2020-09-05 00:00:00 22.4 0 Calma 10 Nordeste 0 -- -- 85
2020-09-04 23:00:00 22.7 9 Este 12 Este 0 -- -- 87
2020-09-04 22:00:00 22.7 10 Sudeste 12 Sudeste 0 -- -- 90
2020-09-04 21:00:00 23.4 7 Oeste 22 Oeste 0 -- -- 85
2020-09-04 20:00:00 23.9 10 Oeste 32 Este 0 -- -- 77
2020-09-04 19:00:00 25.2 24 Nordeste 33 Este 0 -- -- 70
2020-09-04 18:00:00 25.6 3 Sur 17 Oeste 0 -- -- 69
2020-09-04 17:00:00 25.4 12 Oeste 18 Oeste 0 -- -- 69
2020-09-04 16:00:00 25.3 12 Sudoeste 19 Oeste 0 -- -- 70
2020-09-04 15:00:00 25.8 12 Oeste 23 Oeste 0 -- -- 69
2020-09-04 14:00:00 25.3 13 Sudoeste 21 Oeste 0 -- -- 68
2020-09-04 13:00:00 27.1 7 Sudoeste 72 Este 0 -- -- 63
2020-09-04 12:00:00 26.3 20 Este 31 Nordeste 0 -- -- 63
2020-09-04 11:00:00 24.6 6 Sudeste 17 Nordeste 0 -- -- 72
2020-09-04 10:00:00 22.8 10 Este 14 Este 0 -- -- 83
2020-09-04 09:00:00 22.6 8 Sudoeste 13 Sudoeste 0 -- -- 90
2020-09-04 08:00:00 21.4 3 Oeste 12 Oeste 0 -- -- 92
2020-09-04 07:00:00 21 2 Sudoeste 5 Sudoeste 0 -- -- 89
2020-09-04 06:00:00 20.5 0 Calma 11 Nordeste 0 -- -- 88
2020-09-04 05:00:00 21.3 0 Calma 10 Sudeste 0 -- -- 85
2020-09-04 04:00:00 21.8 6 Nordeste 14 Este 0 -- -- 84
2020-09-04 03:00:00 22.1 12 Este 16 Nordeste 0 -- -- 88
2020-09-04 02:00:00 22.5 6 Oeste 15 Oeste 0 -- -- 89
2020-09-04 01:00:00 22.6 5 Oeste 14 Oeste 0 -- -- 89
2020-09-04 00:00:00 22.7 5 Oeste 12 Oeste 0 -- -- 88
2020-09-03 23:00:00 22.7 3 Sudoeste 9 Sur 0 -- -- 88
2020-09-03 22:00:00 22.8 4 Sur 8 Sur 0 -- -- 87
2020-09-03 21:00:00 22.9 9 Sur 15 Sudoeste 0 -- -- 88
2020-09-03 20:00:00 23.5 14 Sudoeste 19 Oeste 0 -- -- 84
2020-09-03 19:00:00 24.8 12 Sudoeste 26 Este 0 -- -- 73
2020-09-03 18:00:00 25.5 15 Nordeste 35 Este 0 -- -- 69
2020-09-03 17:00:00 25.3 26 Este 40 Este 0 -- -- 68
2020-09-03 16:00:00 25.3 29 Este 72 Nordeste 0 -- -- 67
2020-09-03 15:00:00 25.8 3 Sudoeste 71 Este 0 -- -- 67
2020-09-03 14:00:00 25.8 33 Este 72 Nordeste 0 -- -- 65
2020-09-03 13:00:00 25.9 5 Sudoeste 71 Este 0 -- -- 66
2020-09-03 12:00:00 25.4 34 Este 72 Nordeste 0 -- -- 63
2020-09-03 11:00:00 25.2 32 Nordeste 72 Nordeste 0 -- -- 65
2020-09-03 10:00:00 24.7 24 Nordeste 71 Nordeste 0 -- -- 66
2020-09-03 09:00:00 23.3 3 Nordeste 8 Nordeste 0 -- -- 78
2020-09-03 08:00:00 20.5 4 Nordeste 6 Nordeste 0 -- -- 87
2020-09-03 07:00:00 20.9 2 Este 7 Nordeste 0 -- -- 85
2020-09-03 06:00:00 21.2 4 Nordeste 7 Nordeste 0 -- -- 75
2020-09-03 05:00:00 21.3 3 Nordeste 6 Nordeste 0 -- -- 70
2020-09-03 04:00:00 20.9 3 Norte 5 Norte 0 -- -- 91
2020-09-03 03:00:00 21.9 0 Calma 5 Sudeste 0 -- -- 88
2020-09-03 02:00:00 22.6 4 Sudoeste 10 Sudoeste 0 -- -- 92
2020-09-03 01:00:00 22.9 5 Oeste 10 Sudoeste 0 -- -- 91
2020-09-03 00:00:00 22.8 2 Oeste 9 Sudoeste 0 -- -- 89
2020-09-02 23:00:00 23 5 Oeste 11 Oeste 0 -- -- 88
2020-09-02 22:00:00 23.1 5 Oeste 14 Oeste 0 -- -- 85
2020-09-02 21:00:00 23.4 5 Oeste 16 Sudoeste 0 -- -- 82
2020-09-02 20:00:00 24 11 Sudoeste 19 Sudoeste 0 -- -- 78
2020-09-02 19:00:00 25.4 9 Sudoeste 16 Sudoeste 0 -- -- 70
2020-09-02 18:00:00 25.8 9 Sudoeste 16 Sudoeste 0 -- -- 69
2020-09-02 17:00:00 26 10 Sudoeste 18 Sudoeste 0 -- -- 69
2020-09-02 16:00:00 25.9 10 Oeste 19 Sudoeste 0 -- -- 69
2020-09-02 15:00:00 25.4 13 Sudoeste 18 Sudoeste 0 -- -- 69
2020-09-02 14:00:00 25.8 12 Sudoeste 18 Sudoeste 0 -- -- 67
2020-09-02 13:00:00 25.3 12 Sudoeste 19 Sudoeste 0 -- -- 70
2020-09-02 12:00:00 24.9 12 Sudoeste 17 Sudoeste 0 -- -- 71
2020-09-02 11:00:00 24.8 6 Sudoeste 9 Sur 0 -- -- 70
2020-09-02 10:00:00 23.7 6 Este 10 Este 0 -- -- 74
2020-09-02 09:00:00 23.3 5 Nordeste 15 Nordeste 0 -- -- 77
2020-09-02 08:00:00 21.3 6 Nordeste 8 Nordeste 0 -- -- 88
2020-09-02 07:00:00 21.7 4 Nordeste 7 Nordeste 0 -- -- 86
2020-09-02 06:00:00 22.3 6 Nordeste 11 Sudoeste 0 -- -- 84
2020-09-02 05:00:00 22.5 6 Sudoeste 8 Sudoeste 0 -- -- 91
2020-09-02 04:00:00 22.7 5 Sudoeste 10 Sudoeste 0 -- -- 90
2020-09-02 03:00:00 23.3 8 Sudoeste 10 Sudoeste 0 -- -- 88
2020-09-02 02:00:00 23.6 2 Sur 10 Sur 0 -- -- 81
2020-09-02 01:00:00 23.6 7 Sudoeste 12 Sudoeste 0 -- -- 88
2020-09-02 00:00:00 23.4 8 Oeste 17 Oeste 0 -- -- 87
2020-09-01 23:00:00 23.7 10 Oeste 18 Oeste 0 -- -- 84
2020-09-01 22:00:00 23.3 6 Sudoeste 13 Sudeste 0 -- -- 91
2020-09-01 21:00:00 23.2 11 Sudeste 15 Sudeste 0 -- -- 92
2020-09-01 20:00:00 23.4 11 Sudeste 18 Sudeste 0 -- -- 88
2020-09-01 19:00:00 24.1 13 Sudeste 18 Sudeste 0 -- -- 82
2020-09-01 18:00:00 24.9 10 Sudeste 15 Sudeste 0 -- -- 74
2020-09-01 17:00:00 25.3 10 Este 13 Sudeste 0 -- -- 72
2020-09-01 16:00:00 25.1 7 Sur 10 Sudeste 0 -- -- 72
2020-09-01 15:00:00 25.3 7 Sudeste 12 Sudeste 0 -- -- 71
2020-09-01 14:00:00 24.7 8 Sudeste 14 Sudeste 0 -- -- 73
2020-09-01 13:00:00 24.6 9 Sudeste 14 Sur 0 -- -- 74
2020-09-01 12:00:00 24.2 9 Sur 11 Sur 0 -- -- 75
2020-09-01 11:00:00 23.5 8 Sudeste 10 Sur 0 -- -- 75
2020-09-01 10:00:00 23.7 5 Sudeste 7 Sudeste 0 -- -- 71
2020-09-01 09:00:00 23.6 2 Norte 7 Norte 0 -- -- 69
2020-09-01 08:00:00 20.3 0 Calma 6 Norte 0 -- -- 79
2020-09-01 07:00:00 20.5 2 Norte 6 Noroeste 0 -- -- 82
2020-09-01 06:00:00 20.7 4 Noroeste 10 Noroeste 0 -- -- 81
2020-09-01 05:00:00 21.3 3 Noroeste 15 Oeste 0 -- -- 81
2020-09-01 04:00:00 21.8 3 Oeste 11 Sudoeste 0 -- -- 79
2020-09-01 03:00:00 21.2 0 Calma 7 Noroeste 0 -- -- 78
2020-09-01 02:00:00 21.6 2 Noroeste 5 Noroeste 0 -- -- 80
2020-09-01 01:00:00 22.5 4 Sudoeste 7 Sudoeste 0 -- -- 79
2020-09-01 00:00:00 22.6 4 Sur 10 Sudoeste 0 -- -- 78
2020-08-31 23:00:00 23.2 6 Oeste 18 Oeste 0 -- -- 73
2020-08-31 22:00:00 23.1 9 Oeste 22 Oeste 0 -- -- 72
2020-08-31 21:00:00 23.4 9 Oeste 20 Oeste 0 -- -- 70
2020-08-31 20:00:00 23.9 5 Oeste 16 Sur 0 -- -- 67
2020-08-31 19:00:00 24 14 Sur 28 Sur 0 -- -- 69
2020-08-31 18:00:00 23.6 20 Sur 26 Sur 0 -- -- 73
2020-08-31 17:00:00 24.1 18 Sur 24 Sudoeste 0 -- -- 69
2020-08-31 16:00:00 24.9 20 Sudoeste 27 Sudoeste 0 -- -- 62
2020-08-31 15:00:00 25.4 14 Sudoeste 23 Sudoeste 0 -- -- 61
2020-08-31 14:00:00 -- -- -- -- -- -- -- -- --
2020-08-31 13:00:00 -- -- -- -- -- -- -- -- --
2020-08-31 12:00:00 -- -- -- -- -- -- -- -- --
2020-08-31 11:00:00 -- -- -- -- -- -- -- -- --
2020-08-31 10:00:00 -- -- -- -- -- -- -- -- --
2020-08-31 09:00:00 -- -- -- -- -- -- -- -- --
2020-08-31 08:00:00 -- -- -- -- -- -- -- -- --
2020-08-31 07:00:00 -- -- -- -- -- -- -- -- --
2020-08-31 06:00:00 -- -- -- -- -- -- -- -- --
2020-08-31 05:00:00 -- -- -- -- -- -- -- -- --
2020-08-31 04:00:00 -- -- -- -- -- -- -- -- --
2020-08-31 03:00:00 -- -- -- -- -- -- -- -- --
2020-08-31 02:00:00 -- -- -- -- -- -- -- -- --
2020-08-31 01:00:00 -- -- -- -- -- -- -- -- --
2020-08-31 00:00:00 -- -- -- -- -- -- -- -- --
2020-08-30 23:00:00 -- -- -- -- -- -- -- -- --
2020-08-30 22:00:00 -- -- -- -- -- -- -- -- --
2020-08-30 21:00:00 -- -- -- -- -- -- -- -- --
2020-08-30 20:00:00 -- -- -- -- -- -- -- -- --
2020-08-30 19:00:00 -- -- -- -- -- -- -- -- --
2020-08-30 18:00:00 -- -- -- -- -- -- -- -- --
2020-08-30 17:00:00 -- -- -- -- -- -- -- -- --
2020-08-30 16:00:00 -- -- -- -- -- -- -- -- --
2020-08-30 15:00:00 -- -- -- -- -- -- -- -- --
2020-08-30 14:00:00 -- -- -- -- -- -- -- -- --
2020-08-30 13:00:00 -- -- -- -- -- -- -- -- --
2020-08-30 12:00:00 -- -- -- -- -- -- -- -- --
2020-08-30 11:00:00 -- -- -- -- -- -- -- -- --
2020-08-30 10:00:00 -- -- -- -- -- -- -- -- --
2020-08-30 09:00:00 -- -- -- -- -- -- -- -- --
2020-08-30 08:00:00 -- -- -- -- -- -- -- -- --
2020-08-30 07:00:00 -- -- -- -- -- -- -- -- --
2020-08-30 06:00:00 -- -- -- -- -- -- -- -- --
2020-08-30 05:00:00 -- -- -- -- -- -- -- -- --
2020-08-30 04:00:00 -- -- -- -- -- -- -- -- --
2020-08-30 03:00:00 -- -- -- -- -- -- -- -- --
2020-08-30 02:00:00 -- -- -- -- -- -- -- -- --
2020-08-30 01:00:00 -- -- -- -- -- -- -- -- --
2020-08-30 00:00:00 -- -- -- -- -- -- -- -- --
2020-08-29 23:00:00 -- -- -- -- -- -- -- -- --
2020-08-29 22:00:00 -- -- -- -- -- -- -- -- --
2020-08-29 21:00:00 -- -- -- -- -- -- -- -- --
2020-08-29 20:00:00 -- -- -- -- -- -- -- -- --
2020-08-29 19:00:00 -- -- -- -- -- -- -- -- --
2020-08-29 18:00:00 -- -- -- -- -- -- -- -- --
2020-08-29 17:00:00 -- -- -- -- -- -- -- -- --
2020-08-29 16:00:00 -- -- -- -- -- -- -- -- --
2020-08-29 15:00:00 -- -- -- -- -- -- -- -- --
2020-08-29 14:00:00 -- -- -- -- -- -- -- -- --
2020-08-29 13:00:00 -- -- -- -- -- -- -- -- --
2020-08-29 12:00:00 -- -- -- -- -- -- -- -- --
2020-08-29 11:00:00 -- -- -- -- -- -- -- -- --
2020-08-29 10:00:00 -- -- -- -- -- -- -- -- --
2020-08-29 09:00:00 -- -- -- -- -- -- -- -- --
2020-08-29 08:00:00 -- -- -- -- -- -- -- -- --
2020-08-29 07:00:00 -- -- -- -- -- -- -- -- --
2020-08-29 06:00:00 -- -- -- -- -- -- -- -- --
2020-08-29 05:00:00 -- -- -- -- -- -- -- -- --
2020-08-29 04:00:00 -- -- -- -- -- -- -- -- --
2020-08-29 03:00:00 -- -- -- -- -- -- -- -- --
2020-08-29 02:00:00 -- -- -- -- -- -- -- -- --
2020-08-29 01:00:00 -- -- -- -- -- -- -- -- --
2020-08-29 00:00:00 -- -- -- -- -- -- -- -- --
2020-08-28 23:00:00 -- -- -- -- -- -- -- -- --
2020-08-28 22:00:00 -- -- -- -- -- -- -- -- --
2020-08-28 21:00:00 -- -- -- -- -- -- -- -- --
2020-08-28 20:00:00 -- -- -- -- -- -- -- -- --
2020-08-28 19:00:00 -- -- -- -- -- -- -- -- --
2020-08-28 18:00:00 -- -- -- -- -- -- -- -- --
2020-08-28 17:00:00 -- -- -- -- -- -- -- -- --
2020-08-28 16:00:00 -- -- -- -- -- -- -- -- --
2020-08-28 15:00:00 -- -- -- -- -- -- -- -- --
2020-08-28 14:00:00 -- -- -- -- -- -- -- -- --
2020-08-28 13:00:00 -- -- -- -- -- -- -- -- --
2020-08-28 12:00:00 -- -- -- -- -- -- -- -- --
2020-08-28 11:00:00 -- -- -- -- -- -- -- -- --
2020-08-28 10:00:00 27.2 8 Oeste 17 Oeste 0 -- -- 65
2020-08-28 09:00:00 27 4 Sudoeste 7 Sudoeste 0 -- -- 59
2020-08-28 08:00:00 26.9 3 Oeste 12 Sudoeste 0 -- -- 52
2020-08-28 07:00:00 28.1 6 Oeste 18 Oeste 0 -- -- 51
2020-08-28 06:00:00 27.7 7 Oeste 20 Oeste 0 -- -- 54
2020-08-28 05:00:00 28.3 0 Calma 15 Nordeste 0 -- -- 47
2020-08-28 04:00:00 25.5 0 Calma 14 Oeste 0 -- -- 75
2020-08-28 03:00:00 25.2 8 Oeste 15 Oeste 0 -- -- 83
2020-08-28 02:00:00 27.3 6 Oeste 12 Oeste 0 -- -- 63
2020-08-28 01:00:00 25.3 6 Oeste 15 Oeste 0 -- -- 83
2020-08-28 00:00:00 24.8 7 Oeste 13 Oeste 0 -- -- 91